createdAt,value
2019-03-30T00:02:20.761Z,98674.75
2019-03-30T00:04:51.899Z,98672.02
2019-03-30T00:07:23.025Z,98679.13
2019-03-30T00:09:54.081Z,98681.73
2019-03-30T00:12:25.082Z,98681.76
2019-03-30T00:14:56.221Z,98680.50
2019-03-30T00:17:27.308Z,98680.58
2019-03-30T00:19:58.333Z,98684.72
2019-03-30T00:22:29.374Z,98681.97
2019-03-30T00:25:00.439Z,98678.11
2019-03-30T00:27:31.648Z,98680.14
2019-03-30T00:30:02.773Z,98672.88
2019-03-30T00:32:33.729Z,98676.71
2019-03-30T00:35:05.155Z,98678.50
2019-03-30T00:37:36.120Z,98671.91
2019-03-30T00:40:07.658Z,98673.88
2019-03-30T00:42:38.821Z,98674.42
2019-03-30T00:45:10.037Z,98677.81
2019-03-30T00:47:41.081Z,98676.63
2019-03-30T00:50:12.469Z,98670.53
2019-03-30T00:52:43.665Z,98668.29
2019-03-30T00:55:15.475Z,98660.93
2019-03-30T00:57:46.513Z,98661.36
2019-03-30T01:00:18.036Z,98666.36
2019-03-30T01:02:49.460Z,98667.79
2019-03-30T01:05:20.581Z,98667.83
2019-03-30T01:07:51.773Z,98670.35
2019-03-30T01:10:23.108Z,98664.57
2019-03-30T01:12:54.569Z,98656.54
2019-03-30T01:15:25.679Z,98655.22
2019-03-30T01:17:56.785Z,98647.69
2019-03-30T01:20:28.094Z,98644.17
2019-03-30T01:22:59.229Z,98647.05
2019-03-30T01:25:30.444Z,98644.61
2019-03-30T01:28:01.551Z,98648.57
2019-03-30T01:30:32.819Z,98643.47
2019-03-30T01:33:03.858Z,98645.86
2019-03-30T01:35:35.004Z,98637.88
2019-03-30T01:38:06.189Z,98640.02
2019-03-30T01:40:37.437Z,98637.91
2019-03-30T01:43:08.644Z,98640.20
2019-03-30T01:45:39.866Z,98632.23
2019-03-30T01:48:11.067Z,98627.47
2019-03-30T01:50:42.329Z,98626.03
2019-03-30T01:53:13.523Z,98621.73
2019-03-30T01:55:44.594Z,98626.83
2019-03-30T01:58:15.787Z,98619.16
2019-03-30T02:00:46.883Z,98622.80
2019-03-30T02:03:18.132Z,98616.84
2019-03-30T02:05:49.305Z,98613.91
2019-03-30T02:08:20.441Z,98620.73
2019-03-30T02:10:51.826Z,98623.94
2019-03-30T02:13:23.033Z,98613.66
2019-03-30T02:15:54.229Z,98621.17
2019-03-30T02:18:25.446Z,98620.43
2019-03-30T02:20:56.450Z,98625.88
2019-03-30T02:23:27.501Z,98619.48
2019-03-30T02:25:58.741Z,98614.79
2019-03-30T02:28:29.922Z,98621.95
2019-03-30T02:31:01.166Z,98619.75
2019-03-30T02:33:32.436Z,98620.05
2019-03-30T02:36:03.772Z,98617.23
2019-03-30T02:38:35.037Z,98608.77
2019-03-30T02:41:06.281Z,98604.56
2019-03-30T02:43:37.781Z,98607.98
2019-03-30T02:46:08.875Z,98607.09
2019-03-30T02:48:40.016Z,98609.66
2019-03-30T02:51:11.165Z,98601.17
2019-03-30T02:53:42.378Z,98599.56
2019-03-30T02:56:13.520Z,98597.58
2019-03-30T02:58:44.664Z,98602.78
2019-03-30T03:01:15.816Z,98599.39
2019-03-30T03:03:47.071Z,98593.06
2019-03-30T03:06:18.244Z,98598.42
2019-03-30T03:08:49.339Z,98593.61
2019-03-30T03:11:20.493Z,98593.40
2019-03-30T03:13:51.628Z,98594.86
2019-03-30T03:16:27.039Z,98590.28
2019-03-30T03:18:55.822Z,98586.52
2019-03-30T03:21:27.016Z,98589.91
2019-03-30T03:23:58.341Z,98593.30
2019-03-30T03:26:29.458Z,98596.39
2019-03-30T03:29:00.486Z,98589.91
2019-03-30T03:31:31.632Z,98591.24
2019-03-30T03:34:02.769Z,98590.84
2019-03-30T03:36:33.996Z,98589.73
2019-03-30T03:39:06.407Z,98587.52
2019-03-30T03:41:37.634Z,98588.91
2019-03-30T03:44:08.826Z,98589.16
2019-03-30T03:46:40.128Z,98587.72
2019-03-30T03:49:12.605Z,98588.78
2019-03-30T03:51:44.128Z,98586.47
2019-03-30T03:54:15.771Z,98578.23
2019-03-30T03:56:51.233Z,98580.36
2019-03-30T03:59:25.992Z,98584.52
2019-03-30T04:01:59.279Z,98580.48
2019-03-30T04:04:36.059Z,98580.27
2019-03-30T04:07:08.861Z,98578.91
2019-03-30T04:09:44.708Z,98584.55
2019-03-30T04:12:20.702Z,98579.68
2019-03-30T04:14:54.623Z,98580.05
2019-03-30T04:17:26.799Z,98581.50
2019-03-30T04:19:57.863Z,98587.71
2019-03-30T04:22:37.356Z,98585.52
2019-03-30T04:25:08.728Z,98584.64
2019-03-30T04:27:39.803Z,98589.47
2019-03-30T04:30:11.316Z,98590.73
2019-03-30T04:32:42.368Z,98584.14
2019-03-30T04:35:20.775Z,98579.59
2019-03-30T04:37:51.879Z,98578.66
2019-03-30T04:40:27.098Z,98580.17
2019-03-30T04:42:59.206Z,98572.71
2019-03-30T04:45:30.466Z,98573.77
2019-03-30T04:48:01.720Z,98571.19
2019-03-30T04:50:32.846Z,98568.23
2019-03-30T04:53:11.947Z,98566.59
2019-03-30T04:55:43.335Z,98561.98
2019-03-30T04:58:15.527Z,98571.77
2019-03-30T05:00:47.878Z,98566.26
2019-03-30T05:03:19.198Z,98566.66
2019-03-30T05:05:50.380Z,98574.16
2019-03-30T05:08:21.402Z,98573.61
2019-03-30T05:10:52.672Z,98573.98
2019-03-30T05:13:23.749Z,98575.42
2019-03-30T05:15:54.891Z,98574.03
2019-03-30T05:18:26.184Z,98570.02
2019-03-30T05:20:57.354Z,98576.30
2019-03-30T05:23:28.564Z,98576.22
2019-03-30T05:25:59.822Z,98576.17
2019-03-30T05:28:30.977Z,98600.74
2019-03-30T05:31:02.156Z,98579.89
2019-03-30T05:33:33.374Z,98580.93
2019-03-30T05:36:04.638Z,98584.55
2019-03-30T05:38:35.599Z,98581.27
2019-03-30T05:41:08.787Z,98575.59
2019-03-30T05:43:39.972Z,98581.23
2019-03-30T05:46:11.091Z,98584.58
2019-03-30T05:48:42.464Z,98582.87
2019-03-30T05:51:13.644Z,98585.00
2019-03-30T05:53:44.627Z,98584.07
2019-03-30T05:56:15.830Z,98592.79
2019-03-30T05:58:47.060Z,98591.66
2019-03-30T06:01:19.252Z,98591.67
2019-03-30T06:03:51.504Z,98590.83
2019-03-30T06:06:22.661Z,98593.58
2019-03-30T06:08:53.686Z,98594.78
2019-03-30T06:11:24.831Z,98582.63
2019-03-30T06:13:55.880Z,98591.86
2019-03-30T06:16:27.020Z,98594.78
2019-03-30T06:18:58.257Z,98584.88
2019-03-30T06:21:29.354Z,98584.65
2019-03-30T06:24:00.650Z,98587.13
2019-03-30T06:26:31.878Z,98592.31
2019-03-30T06:29:03.024Z,98589.66
2019-03-30T06:31:34.309Z,98590.36
2019-03-30T06:34:06.181Z,98592.53
2019-03-30T06:36:37.286Z,98592.17
2019-03-30T06:39:09.074Z,98598.44
2019-03-30T06:41:40.360Z,98594.10
2019-03-30T06:44:11.581Z,98598.41
2019-03-30T06:46:42.839Z,98597.61
2019-03-30T06:49:14.142Z,98596.59
2019-03-30T06:51:45.558Z,98593.43
2019-03-30T06:54:16.726Z,98590.05
2019-03-30T06:56:47.774Z,98588.63
2019-03-30T06:59:19.144Z,98591.48
2019-03-30T07:01:50.465Z,98589.09
2019-03-30T07:04:21.685Z,98587.23
2019-03-30T07:06:53.970Z,98586.95
2019-03-30T07:09:28.476Z,98591.44
2019-03-30T07:12:02.863Z,98589.31
2019-03-30T07:14:37.890Z,98598.72
2019-03-30T07:17:12.910Z,98596.39
2019-03-30T07:19:48.215Z,98594.17
2019-03-30T07:22:19.475Z,98599.36
2019-03-30T07:24:50.518Z,98594.80
2019-03-30T07:27:21.557Z,98597.31
2019-03-30T07:29:52.830Z,98598.55
2019-03-30T07:32:23.882Z,98600.63
2019-03-30T07:34:55.193Z,98598.69
2019-03-30T07:37:26.335Z,98596.83
2019-03-30T07:39:57.418Z,98598.16
2019-03-30T07:42:28.577Z,98597.78
2019-03-30T07:44:59.748Z,98601.07
2019-03-30T07:47:30.971Z,98597.37
2019-03-30T07:50:02.218Z,98600.84
2019-03-30T07:52:33.321Z,98601.90
2019-03-30T07:55:04.490Z,98600.34
2019-03-30T07:57:35.780Z,98601.73
2019-03-30T08:00:08.764Z,98601.89
2019-03-30T08:02:40.211Z,98596.77
2019-03-30T08:05:11.893Z,98602.02
2019-03-30T08:07:43.193Z,98603.50
2019-03-30T08:10:14.763Z,98606.00
2019-03-30T08:12:45.886Z,98602.08
2019-03-30T08:15:17.396Z,98596.47
2019-03-30T08:17:48.535Z,98595.39
2019-03-30T08:20:19.735Z,98601.11
2019-03-30T08:22:50.979Z,98597.46
2019-03-30T08:25:22.253Z,98607.66
2019-03-30T08:27:53.397Z,98600.80
2019-03-30T08:30:24.770Z,98602.72
2019-03-30T08:32:55.914Z,98597.97
2019-03-30T08:35:27.202Z,98595.89
2019-03-30T08:37:58.520Z,98592.25
2019-03-30T08:40:29.594Z,98600.27
2019-03-30T08:43:00.829Z,98595.06
2019-03-30T08:45:33.034Z,98592.02
2019-03-30T08:48:04.237Z,98593.05
2019-03-30T08:50:35.489Z,98588.33
2019-03-30T08:53:06.812Z,98589.25
2019-03-30T08:55:38.015Z,98588.22
2019-03-30T08:58:09.068Z,98588.17
2019-03-30T09:00:42.408Z,98599.32
2019-03-30T09:03:13.739Z,98594.23
2019-03-30T09:05:44.996Z,98595.44
2019-03-30T09:08:16.245Z,98592.50
2019-03-30T09:10:47.592Z,98596.72
2019-03-30T09:13:18.622Z,98591.73
2019-03-30T09:15:49.895Z,98589.88
2019-03-30T09:18:20.997Z,98591.66
2019-03-30T09:20:52.166Z,98588.28
2019-03-30T09:23:23.234Z,98588.00
2019-03-30T09:25:54.586Z,98589.27
2019-03-30T09:28:25.922Z,98585.91
2019-03-30T09:30:57.097Z,98580.20
2019-03-30T09:33:28.322Z,98580.97
2019-03-30T09:35:59.657Z,98578.11
2019-03-30T09:38:30.718Z,98574.11
2019-03-30T09:41:01.932Z,98575.52
2019-03-30T09:43:33.227Z,98569.44
2019-03-30T09:46:04.383Z,98567.36
2019-03-30T09:48:35.599Z,98569.58
2019-03-30T09:51:06.817Z,98562.27
2019-03-30T09:53:38.018Z,98561.55
2019-03-30T10:01:44.059Z,98554.28
2019-03-30T10:04:22.266Z,98552.02
2019-03-30T10:07:01.396Z,98550.33
2019-03-30T10:10:00.107Z,98550.97
2019-03-30T10:12:47.371Z,98542.57
2019-03-30T10:15:26.254Z,98536.66
2019-03-30T10:18:19.652Z,98536.79
2019-03-30T10:21:21.453Z,98533.83
2019-03-30T10:24:18.694Z,98530.63
2019-03-30T10:27:13.823Z,98527.11
2019-03-30T10:30:13.968Z,98533.81
2019-03-30T10:32:52.829Z,98523.61
2019-03-30T10:35:40.146Z,98521.20
2019-03-30T10:38:19.359Z,98516.61
2019-03-30T10:40:56.510Z,98517.05
2019-03-30T10:43:40.056Z,98511.20
2019-03-30T10:46:17.218Z,98510.91
2019-03-30T10:48:53.609Z,98509.62
2019-03-30T10:51:38.292Z,98508.81
2019-03-30T10:54:22.439Z,98510.96
2019-03-30T10:57:05.635Z,98503.15
2019-03-30T10:59:49.734Z,98500.70
2019-03-30T11:02:41.898Z,98497.70
2019-03-30T11:05:39.837Z,98491.67
2019-03-30T11:08:16.619Z,98481.13
2019-03-30T11:10:55.792Z,98488.16
2019-03-30T11:13:53.932Z,98487.44
2019-03-30T11:16:59.891Z,98478.59
2019-03-30T11:19:45.643Z,98477.91
2019-03-30T11:22:42.434Z,98478.50
2019-03-30T11:25:34.550Z,98482.91
2019-03-30T11:28:49.246Z,98477.52
2019-03-30T11:31:35.218Z,98470.14
2019-03-30T11:34:15.394Z,98466.09
2019-03-30T11:36:50.927Z,98454.69
2019-03-30T11:39:34.103Z,98454.80
2019-03-30T11:42:22.923Z,98441.50
2019-03-30T11:45:09.817Z,98443.27
2019-03-30T11:48:10.621Z,98439.11
2019-03-30T11:51:12.098Z,98439.14
2019-03-30T11:53:56.380Z,98430.72
2019-03-30T11:56:54.797Z,98428.33
2019-03-30T11:59:42.337Z,98423.44
2019-03-30T12:02:38.611Z,98417.08
2019-03-30T12:05:40.445Z,98422.09
2019-03-30T12:16:48.856Z,98413.84
2019-03-30T12:19:22.176Z,98410.87
2019-03-30T12:22:01.994Z,98407.48
2019-03-30T12:27:52.828Z,98399.76
2019-03-30T12:30:24.044Z,98403.77
2019-03-30T12:32:56.031Z,98390.53
2019-03-30T12:35:27.370Z,98394.33
2019-03-30T12:37:58.564Z,98380.27
2019-03-30T12:40:29.889Z,98385.81
2019-03-30T12:43:01.113Z,98382.46
2019-03-30T12:45:32.327Z,98374.53
2019-03-30T12:48:03.605Z,98373.46
2019-03-30T12:50:34.850Z,98368.46
2019-03-30T12:53:06.945Z,98367.15
2019-03-30T12:55:48.732Z,98361.21
2019-03-30T12:58:11.165Z,98354.23
2019-03-30T13:00:42.291Z,98338.73
2019-03-30T13:03:13.476Z,98345.83
2019-03-30T13:05:45.457Z,98351.81
2019-03-30T13:08:16.540Z,98345.33
2019-03-30T13:10:47.667Z,98346.03
2019-03-30T13:13:18.743Z,98345.78
2019-03-30T13:15:49.847Z,98344.47
2019-03-30T13:18:20.961Z,98341.20
2019-03-30T13:20:52.081Z,98332.73
2019-03-30T13:23:23.265Z,98334.91
2019-03-30T13:26:03.434Z,98327.62
2019-03-30T13:28:27.368Z,98321.05
2019-03-30T13:30:58.509Z,98319.91
2019-03-30T13:33:29.572Z,98327.20
2019-03-30T13:36:00.607Z,98308.64
2019-03-30T13:38:31.680Z,98321.88
2019-03-30T13:41:02.796Z,98320.08
2019-03-30T13:43:33.972Z,98308.94
2019-03-30T13:46:05.257Z,98306.88
2019-03-30T13:48:36.374Z,98300.88
2019-03-30T13:51:07.563Z,98305.25
2019-03-30T13:53:38.832Z,98295.00
2019-03-30T13:56:17.139Z,98301.44
2019-03-30T13:58:43.349Z,98293.14
2019-03-30T14:01:14.621Z,98291.89
2019-03-30T14:03:46.223Z,98289.48
2019-03-30T14:06:18.007Z,98285.45
2019-03-30T14:08:49.156Z,98278.65
2019-03-30T14:11:20.198Z,98281.78
2019-03-30T14:13:51.434Z,98275.64
2019-03-30T14:16:22.592Z,98270.05
2019-03-30T14:18:53.940Z,98273.13
2019-03-30T14:21:25.373Z,98272.42
2019-03-30T14:23:56.664Z,98264.36
2019-03-30T14:26:31.598Z,98265.36
2019-03-30T14:29:00.866Z,98259.47
2019-03-30T14:31:32.015Z,98259.52
2019-03-30T14:34:03.259Z,98260.45
2019-03-30T14:36:34.451Z,98256.58
2019-03-30T14:39:07.465Z,98245.25
2019-03-30T14:41:38.677Z,98250.59
2019-03-30T14:44:09.879Z,98249.23
2019-03-30T14:46:41.034Z,98251.89
2019-03-30T14:49:12.021Z,98243.97
2019-03-30T14:51:43.186Z,98236.36
2019-03-30T14:54:14.380Z,98231.23
2019-03-30T14:56:48.102Z,98228.23
2019-03-30T14:59:19.348Z,98229.13
2019-03-30T15:01:51.104Z,98230.30
2019-03-30T15:04:22.336Z,98228.31
2019-03-30T15:06:53.460Z,98222.95
2019-03-30T15:09:24.679Z,98218.86
2019-03-30T15:11:55.737Z,98215.73
2019-03-30T15:14:26.953Z,98220.11
2019-03-30T15:16:58.089Z,98212.64
2019-03-30T15:19:29.340Z,98207.36
2019-03-30T15:22:00.561Z,98205.47
2019-03-30T15:24:31.899Z,98205.14
2019-03-30T15:27:03.168Z,98205.62
2019-03-30T15:29:34.435Z,98197.09
2019-03-30T15:32:05.771Z,98198.81
2019-03-30T15:34:37.039Z,98192.02
2019-03-30T15:37:08.176Z,98189.77
2019-03-30T15:39:39.242Z,98193.39
2019-03-30T15:42:10.339Z,98195.16
2019-03-30T15:44:41.475Z,98192.64
2019-03-30T15:47:12.682Z,98195.98
2019-03-30T15:49:43.750Z,98186.80
2019-03-30T15:52:14.985Z,98187.86
2019-03-30T15:54:46.203Z,98187.95
2019-03-30T15:57:17.549Z,98185.39
2019-03-30T15:59:48.624Z,98185.06
2019-03-30T16:02:20.015Z,98178.72
2019-03-30T16:04:51.078Z,98180.55
2019-03-30T16:07:22.203Z,98179.47
2019-03-30T16:09:55.803Z,98175.03
2019-03-30T16:12:27.103Z,98178.84
2019-03-30T16:14:58.285Z,98176.51
2019-03-30T16:17:29.500Z,98173.77
2019-03-30T16:20:00.693Z,98174.23
2019-03-30T16:22:32.041Z,98177.11
2019-03-30T16:25:03.423Z,98176.56
2019-03-30T16:27:34.595Z,98169.02
2019-03-30T16:30:06.788Z,98172.20
2019-03-30T16:32:37.937Z,98167.98
2019-03-30T16:35:09.707Z,98160.86
2019-03-30T16:37:40.911Z,98163.81
2019-03-30T16:40:12.146Z,98161.66
2019-03-30T16:42:43.313Z,98158.20
2019-03-30T16:45:14.658Z,98155.39
2019-03-30T16:47:45.976Z,98158.44
2019-03-30T16:50:18.284Z,98153.06
2019-03-30T16:52:49.573Z,98153.91
2019-03-30T16:55:21.857Z,98155.66
2019-03-30T16:57:53.102Z,98157.63
2019-03-30T17:00:24.177Z,98155.82
2019-03-30T17:02:55.232Z,98158.25
2019-03-30T17:05:26.528Z,98152.47
2019-03-30T17:07:58.003Z,98159.34
2019-03-30T17:10:29.253Z,98154.59
2019-03-30T17:13:00.925Z,98154.83
2019-03-30T17:15:32.208Z,98150.25
2019-03-30T17:18:03.776Z,98149.81
2019-03-30T17:20:34.933Z,98157.19
2019-03-30T17:23:06.283Z,98154.81
2019-03-30T17:25:37.482Z,98162.30
2019-03-30T17:28:08.706Z,98154.89
2019-03-30T17:30:39.979Z,98151.59
2019-03-30T17:33:11.192Z,98149.18
2019-03-30T17:35:42.484Z,98153.28
2019-03-30T17:38:14.816Z,98148.57
2019-03-30T17:40:46.111Z,98145.16
2019-03-30T17:43:17.159Z,98155.94
2019-03-30T17:45:48.364Z,98158.92
2019-03-30T17:48:19.568Z,98152.79
2019-03-30T17:50:50.878Z,98150.95
2019-03-30T17:53:21.979Z,98149.09
2019-03-30T17:55:53.098Z,98157.14
2019-03-30T17:58:24.293Z,98154.20
2019-03-30T18:00:55.653Z,98152.55
2019-03-30T18:03:26.940Z,98153.89
2019-03-30T18:05:58.357Z,98160.02
2019-03-30T18:08:29.539Z,98162.45
2019-03-30T18:11:03.848Z,98164.03
2019-03-30T18:13:36.706Z,98159.13
2019-03-30T18:16:07.019Z,98158.77
2019-03-30T18:18:38.319Z,98165.89
2019-03-30T18:21:09.727Z,98168.99
2019-03-30T18:23:41.031Z,98169.35
2019-03-30T18:26:12.207Z,98170.48
2019-03-30T18:28:43.390Z,98174.28
2019-03-30T18:31:14.797Z,98170.05
2019-03-30T18:33:46.268Z,98176.77
2019-03-30T18:36:19.930Z,98161.72
2019-03-30T18:38:52.254Z,98172.00
2019-03-30T18:41:23.588Z,98179.17
2019-03-30T18:43:55.352Z,98190.33
2019-03-30T18:46:26.501Z,98180.83
2019-03-30T18:48:57.738Z,98185.80
2019-03-30T18:51:29.653Z,98184.98
2019-03-30T18:54:01.586Z,98192.89
2019-03-30T18:56:32.721Z,98188.57
2019-03-30T18:59:03.952Z,98197.48
2019-03-30T19:01:34.973Z,98199.88
2019-03-30T19:04:06.209Z,98205.70
2019-03-30T19:06:37.484Z,98205.88
2019-03-30T19:09:11.318Z,98210.09
2019-03-30T19:11:42.445Z,98213.22
2019-03-30T19:14:13.671Z,98205.62
2019-03-30T19:16:44.760Z,98211.88
2019-03-30T19:19:17.156Z,98209.37
2019-03-30T19:21:48.403Z,98208.53
2019-03-30T19:24:19.440Z,98209.73
2019-03-30T19:26:50.704Z,98207.59
2019-03-30T19:29:21.813Z,98209.22
2019-03-30T19:31:52.948Z,98203.98
2019-03-30T19:34:24.196Z,98224.12
2019-03-30T19:36:55.283Z,98205.66
2019-03-30T19:39:26.351Z,98210.88
2019-03-30T19:41:57.383Z,98207.70
2019-03-30T19:44:28.556Z,98216.13
2019-03-30T19:46:59.818Z,98201.27
2019-03-30T19:49:31.130Z,98207.89
2019-03-30T19:52:05.520Z,98209.02
2019-03-30T19:54:35.277Z,98206.28
2019-03-30T19:57:06.491Z,98205.02
2019-03-30T19:59:37.762Z,98209.59
2019-03-30T20:02:09.775Z,98216.77
2019-03-30T20:04:41.046Z,98211.84
2019-03-30T20:07:12.053Z,98209.30
2019-03-30T20:09:43.129Z,98212.01
2019-03-30T20:12:14.390Z,98214.08
2019-03-30T20:14:45.496Z,98211.12
2019-03-30T20:17:16.659Z,98212.66
2019-03-30T20:19:47.859Z,98211.09
2019-03-30T20:22:19.024Z,98215.80
2019-03-30T20:24:50.240Z,98217.39
2019-03-30T20:27:21.593Z,98210.33
2019-03-30T20:29:52.516Z,98207.16
2019-03-30T20:32:23.534Z,98210.67
2019-03-30T20:34:54.574Z,98208.44
2019-03-30T20:37:25.595Z,98211.00
2019-03-30T20:39:56.925Z,98206.97
2019-03-30T20:42:27.975Z,98209.05
2019-03-30T20:44:59.079Z,98206.67
2019-03-30T20:47:30.084Z,98208.72
2019-03-30T20:50:01.334Z,98203.57
2019-03-30T20:52:32.328Z,98201.41
2019-03-30T20:55:03.482Z,98212.36
2019-03-30T20:57:34.519Z,98208.53
2019-03-30T22:07:54.151Z,98189.95
2019-03-30T22:10:30.246Z,98199.91
2019-03-30T22:13:01.470Z,98195.73
2019-03-30T22:15:32.876Z,98197.86
2019-03-30T22:18:04.140Z,98188.58
2019-03-30T22:20:35.387Z,98184.12
2019-03-30T22:23:06.601Z,98190.12
2019-03-30T22:25:37.868Z,98185.41
2019-03-30T22:28:09.092Z,98180.46
2019-03-30T22:30:40.274Z,98177.30
2019-03-30T22:33:11.545Z,98182.54
2019-03-30T22:35:42.721Z,98176.73
2019-03-30T22:38:13.946Z,98175.17
2019-03-30T22:40:45.088Z,98178.82
2019-03-30T22:43:16.433Z,98177.61
2019-03-30T22:45:47.559Z,98174.34
2019-03-30T22:48:19.798Z,98173.94
2019-03-30T22:50:52.613Z,98171.42
2019-03-30T22:53:23.786Z,98171.94
2019-03-30T22:55:54.977Z,98174.95
2019-03-30T22:58:26.137Z,98175.88
2019-03-30T23:01:19.198Z,98175.67
2019-03-30T23:03:50.415Z,98179.85
2019-03-30T23:06:21.629Z,98181.67
2019-03-30T23:08:52.633Z,98176.16
2019-03-30T23:11:23.819Z,98175.97
2019-03-30T23:13:55.033Z,98176.42
2019-03-30T23:16:26.269Z,98173.73
2019-03-30T23:18:57.470Z,98175.67
2019-03-30T23:21:28.830Z,98180.09
2019-03-30T23:23:59.963Z,98180.48
2019-03-30T23:26:31.185Z,98181.30
2019-03-30T23:29:02.229Z,98183.51
2019-03-30T23:31:33.403Z,98184.02
2019-03-30T23:34:04.792Z,98180.61
2019-03-30T23:36:35.923Z,98179.36
2019-03-30T23:39:08.798Z,98178.03
2019-03-30T23:41:40.137Z,98180.66
2019-03-30T23:44:11.242Z,98178.89
2019-03-30T23:46:42.335Z,98177.39
2019-03-30T23:49:13.565Z,98177.14
2019-03-30T23:51:44.896Z,98183.98
2019-03-30T23:54:18.175Z,98179.09
2019-03-30T23:56:49.365Z,98181.97
2019-03-30T23:59:20.648Z,98178.02
